Time;durP1;ratioP1;P1;durP2;ratioP2;P2;SDS_P1;SDS_P2;PMS_P1;PMS_P2;Temp;Humidity;BMP_temperature;BMP_pressure;BME280_temperature;BME280_humidity;BME280_pressure;Samples;Min_cycle;Max_cycle;Signal;HPM_P1;HPM_P2
2023/06/20 00:01:34;;;;;;;5.18;3.50;;;21.50;99.90;;;;;;5008631;28;20021;-32
2023/06/20 00:03:59;;;;;;;5.88;3.33;;;21.50;99.90;;;;;;5011178;28;21364;-35
2023/06/20 00:06:25;;;;;;;7.00;3.45;;;21.50;99.90;;;;;;5010926;28;20032;-32
2023/06/20 00:08:51;;;;;;;5.80;3.40;;;21.50;99.90;;;;;;5010365;28;20045;-33
2023/06/20 00:11:17;;;;;;;8.68;3.72;;;21.50;99.90;;;;;;5012476;28;20379;-35
2023/06/20 00:13:43;;;;;;;9.52;4.13;;;21.40;99.90;;;;;;5014821;28;20030;-33
2023/06/20 00:16:11;;;;;;;6.45;3.25;;;21.40;99.90;;;;;;5033014;28;20501;-36
2023/06/20 00:18:37;;;;;;;5.13;3.08;;;21.40;99.90;;;;;;5021210;28;20028;-33
2023/06/20 00:21:03;;;;;;;5.00;3.50;;;21.40;99.90;;;;;;5032858;28;20132;-36
2023/06/20 00:23:29;;;;;;;5.97;3.28;;;21.40;99.90;;;;;;5012616;28;20034;-35
2023/06/20 00:25:56;;;;;;;4.60;3.72;;;21.30;99.90;;;;;;5033046;28;20396;-34
2023/06/20 00:28:22;;;;;;;4.95;3.45;;;21.40;99.90;;;;;;5030344;28;20018;-34
2023/06/20 00:30:47;;;;;;;5.57;3.67;;;21.40;99.90;;;;;;5014925;28;20080;-39
2023/06/20 00:33:13;;;;;;;4.55;3.50;;;21.40;99.90;;;;;;5015468;28;20104;-35
2023/06/20 00:35:39;;;;;;;3.83;3.17;;;21.40;99.90;;;;;;5032710;28;20033;-31
2023/06/20 00:38:04;;;;;;;3.85;3.42;;;21.30;99.90;;;;;;5032714;28;20033;-34
2023/06/20 00:40:30;;;;;;;5.18;3.42;;;21.40;99.90;;;;;;5019549;28;20014;-33
2023/06/20 00:42:56;;;;;;;6.88;3.75;;;21.30;99.90;;;;;;5032553;28;20030;-32
2023/06/20 00:45:30;;;;;;;7.60;3.30;;;21.30;99.90;;;;;;5032628;28;20458;-34
2023/06/20 00:47:57;;;;;;;4.90;3.28;;;21.30;99.90;;;;;;5032573;28;20367;-32
2023/06/20 00:50:27;;;;;;;4.88;3.63;;;21.30;99.90;;;;;;5027592;28;20029;-33
2023/06/20 00:52:58;;;;;;;7.97;3.55;;;21.40;99.90;;;;;;5012364;28;20605;-33
2023/06/20 00:55:24;;;;;;;4.03;3.38;;;21.30;99.90;;;;;;5012665;28;20029;-37
2023/06/20 00:57:52;;;;;;;6.68;3.60;;;21.30;99.90;;;;;;5012847;28;20505;-35
2023/06/20 01:00:17;;;;;;;3.45;2.95;;;21.40;99.90;;;;;;5030224;28;20025;-35
2023/06/20 01:02:46;;;;;;;5.28;3.40;;;21.40;99.90;;;;;;5017917;28;20136;-32
2023/06/20 01:05:14;;;;;;;3.17;2.85;;;21.40;99.90;;;;;;5014090;28;20529;-35
2023/06/20 01:08:02;;;;;;;3.70;3.00;;;21.40;99.90;;;;;;5032314;28;20109;-35
2023/06/20 01:11:07;;;;;;;4.40;2.90;;;21.40;99.90;;;;;;5033910;28;20482;-33
2023/06/20 01:13:52;;;;;;;10.07;3.45;;;21.40;99.90;;;;;;5036325;28;20030;-33
2023/06/20 01:16:35;;;;;;;4.60;3.13;;;21.40;99.90;;;;;;5028113;28;20033;-36
2023/06/20 01:19:31;;;;;;;7.65;4.57;;;21.40;99.90;;;;;;5034924;28;20077;-32
2023/06/20 01:22:02;;;;;;;5.93;3.17;;;21.40;99.90;;;;;;5036108;28;20052;-34
2023/06/20 01:24:41;;;;;;;7.25;3.35;;;21.40;99.90;;;;;;5035966;28;20029;-35
2023/06/20 01:27:15;;;;;;;6.18;3.47;;;21.50;99.90;;;;;;5035006;28;20033;-33
2023/06/20 01:29:54;;;;;;;3.70;3.33;;;21.40;99.90;;;;;;5036015;28;20432;-35
2023/06/20 01:32:22;;;;;;;4.65;3.13;;;21.40;99.90;;;;;;5033065;28;20117;-34
2023/06/20 01:34:51;;;;;;;6.65;3.50;;;21.40;99.90;;;;;;5035903;28;20528;-31
2023/06/20 01:37:20;;;;;;;6.80;4.00;;;21.40;99.90;;;;;;5034694;28;20048;-37
2023/06/20 01:39:59;;;;;;;7.95;3.33;;;21.40;99.90;;;;;;5035773;28;20508;-33
2023/06/20 01:42:26;;;;;;;6.35;3.53;;;21.40;99.90;;;;;;5034672;28;20431;-40
2023/06/20 01:44:54;;;;;;;5.13;2.85;;;21.40;99.90;;;;;;5035950;28;20022;-34
2023/06/20 01:47:22;;;;;;;4.53;3.15;;;21.50;99.90;;;;;;5032504;28;20027;-31
2023/06/20 01:49:51;;;;;;;5.88;3.65;;;21.40;99.90;;;;;;5033936;28;20100;-34
2023/06/20 01:52:18;;;;;;;5.53;3.33;;;21.40;99.90;;;;;;5023244;28;20102;-33
2023/06/20 01:54:46;;;;;;;6.22;3.25;;;21.40;99.90;;;;;;5014568;28;20036;-33
2023/06/20 01:57:13;;;;;;;7.03;4.20;;;21.30;99.90;;;;;;5022341;28;20108;-34
2023/06/20 01:59:40;;;;;;;4.90;3.10;;;21.20;99.90;;;;;;5033401;28;20037;-34
2023/06/20 02:02:07;;;;;;;7.28;3.55;;;21.30;99.90;;;;;;5031850;28;20037;-31
2023/06/20 02:04:35;;;;;;;8.52;3.67;;;21.40;99.90;;;;;;5035295;28;20048;-35
2023/06/20 02:07:02;;;;;;;;;;;21.40;99.90;;;;;;5016680;28;20049;-31
2023/06/20 02:09:28;;;;;;;3.53;2.90;;;21.30;99.90;;;;;;5028638;28;19924;-35
2023/06/20 02:11:55;;;;;;;7.95;3.80;;;21.20;99.90;;;;;;5035229;28;20068;-43
2023/06/20 02:14:21;;;;;;;5.63;3.40;;;21.20;99.90;;;;;;5033836;28;20026;-36
2023/06/20 02:16:48;;;;;;;4.05;3.30;;;21.20;99.90;;;;;;5032141;28;20033;-37
2023/06/20 02:19:14;;;;;;;7.00;3.60;;;21.20;99.90;;;;;;5023409;28;20029;-69
2023/06/20 02:21:43;;;;;;;5.60;3.50;;;21.20;99.90;;;;;;5013410;28;20406;-40
2023/06/20 02:24:14;;;;;;;8.65;3.60;;;21.20;99.90;;;;;;5015091;28;20038;-39
2023/06/20 02:26:44;;;;;;;8.05;3.75;;;21.20;99.90;;;;;;5020027;28;20030;-38
2023/06/20 02:29:11;;;;;;;8.25;4.78;;;21.30;99.90;;;;;;5034884;28;20033;-32
2023/06/20 02:31:40;;;;;;;4.85;3.42;;;21.40;99.90;;;;;;5031809;28;20018;-35
2023/06/20 02:34:10;;;;;;;6.05;3.70;;;21.40;99.90;;;;;;5034783;28;20033;-32
2023/06/20 02:36:37;;;;;;;6.40;4.00;;;21.30;99.90;;;;;;5033712;28;20498;-32
2023/06/20 02:39:06;;;;;;;4.95;3.35;;;21.30;99.90;;;;;;5034671;28;20044;-33
2023/06/20 02:41:31;;;;;;;7.45;4.32;;;21.20;99.90;;;;;;5034668;28;20025;-32
2023/06/20 02:43:57;;;;;;;6.75;3.47;;;21.30;99.90;;;;;;5031102;28;20040;-36
2023/06/20 02:47:00;;;;;;;5.78;3.63;;;21.20;99.90;;;;;;5013351;28;20049;-31
2023/06/20 02:49:26;;;;;;;6.80;3.80;;;21.20;99.90;;;;;;5033435;28;20025;-37
2023/06/20 02:52:24;;;;;;;5.03;3.30;;;21.20;99.90;;;;;;5017838;28;20091;-32
2023/06/20 02:54:52;;;;;;;7.72;3.25;;;21.20;99.90;;;;;;5013947;28;20393;-37
2023/06/20 02:57:20;;;;;;;7.03;3.97;;;21.20;99.90;;;;;;5014586;28;20386;-33
2023/06/20 02:59:48;;;;;;;;;;;21.20;99.90;;;;;;5013557;28;20697;-36
2023/06/20 03:02:17;;;;;;;4.20;3.30;;;21.10;99.90;;;;;;5019233;28;19909;-33
2023/06/20 03:04:46;;;;;;;4.40;3.30;;;21.20;99.90;;;;;;5034107;28;20041;-34
2023/06/20 03:07:13;;;;;;;5.97;3.60;;;21.20;99.90;;;;;;5017628;28;20029;-33
2023/06/20 03:09:41;;;;;;;6.97;4.30;;;21.20;99.90;;;;;;5026805;28;20104;-34
2023/06/20 03:12:07;;;;;;;4.57;3.38;;;21.20;99.90;;;;;;5028013;28;20054;-32
2023/06/20 03:14:33;;;;;;;6.78;3.50;;;21.20;99.90;;;;;;5012949;28;20034;-34
2023/06/20 03:16:59;;;;;;;7.85;3.75;;;21.20;99.90;;;;;;5015208;28;20060;-33
2023/06/20 03:19:25;;;;;;;6.35;3.38;;;21.20;99.90;;;;;;5012179;28;20030;-37
2023/06/20 03:21:51;;;;;;;6.80;3.05;;;21.20;99.90;;;;;;5014087;28;20092;-33
2023/06/20 03:24:16;;;;;;;10.20;4.13;;;21.20;99.90;;;;;;5013794;28;20030;-33
2023/06/20 03:26:42;;;;;;;4.97;3.35;;;21.20;99.90;;;;;;5014036;28;20085;-39
2023/06/20 03:29:08;;;;;;;4.47;3.63;;;21.20;99.90;;;;;;5020505;28;20506;-32
2023/06/20 03:31:34;;;;;;;4.32;3.63;;;21.20;99.90;;;;;;5013930;28;20026;-32
2023/06/20 03:33:59;;;;;;;4.97;3.50;;;21.20;99.90;;;;;;5029002;28;20029;-35
2023/06/20 03:36:25;;;;;;;6.68;4.07;;;21.20;99.90;;;;;;5024518;28;20121;-35
2023/06/20 03:38:51;;;;;;;5.05;3.60;;;21.20;99.90;;;;;;5025047;28;20030;-45
2023/06/20 03:41:16;;;;;;;6.07;3.55;;;21.20;99.90;;;;;;5033490;28;20052;-34
2023/06/20 03:43:42;;;;;;;11.57;4.22;;;21.20;99.90;;;;;;5033382;28;20521;-36
2023/06/20 03:46:08;;;;;;;5.47;3.90;;;21.20;99.90;;;;;;5023487;28;20038;-33
2023/06/20 03:48:33;;;;;;;5.53;3.95;;;21.20;99.90;;;;;;5023441;28;20490;-44
2023/06/20 03:50:59;;;;;;;5.65;3.85;;;21.20;99.90;;;;;;5013555;28;20026;-32
2023/06/20 03:53:24;;;;;;;9.80;4.13;;;21.20;99.90;;;;;;5014803;28;20497;-39
2023/06/20 03:55:50;;;;;;;6.53;3.85;;;21.20;99.90;;;;;;5012338;28;20030;-38
2023/06/20 03:58:16;;;;;;;6.32;4.05;;;21.20;99.90;;;;;;5010978;28;20537;-38
2023/06/20 04:00:41;;;;;;;9.05;4.07;;;21.20;99.90;;;;;;5010378;28;20033;-35
2023/06/20 04:03:07;;;;;;;5.13;3.50;;;21.20;99.90;;;;;;5010591;28;20037;-36
2023/06/20 04:05:33;;;;;;;6.63;4.05;;;21.20;99.90;;;;;;5012832;28;20505;-34
2023/06/20 04:08:00;;;;;;;7.28;4.25;;;21.30;99.90;;;;;;5012315;28;20024;-33
2023/06/20 04:10:27;;;;;;;11.55;4.57;;;21.20;99.90;;;;;;5012518;28;20033;-35
2023/06/20 04:12:52;;;;;;;5.78;3.92;;;21.30;99.90;;;;;;5010798;28;20053;-32
2023/06/20 04:15:18;;;;;;;6.43;4.03;;;21.30;99.90;;;;;;5013181;28;20034;-31
2023/06/20 04:17:45;;;;;;;5.80;3.97;;;21.30;99.90;;;;;;5012121;28;20109;-33
2023/06/20 04:20:13;;;;;;;5.35;3.47;;;21.30;99.90;;;;;;5013285;28;20506;-36
2023/06/20 04:22:44;;;;;;;12.90;4.05;;;21.30;99.90;;;;;;5016550;28;20061;-35
2023/06/20 04:25:10;;;;;;;9.75;4.78;;;21.30;99.90;;;;;;5033133;28;20029;-35
2023/06/20 04:27:37;;;;;;;7.57;4.43;;;21.40;99.90;;;;;;5032828;28;20026;-34
2023/06/20 04:30:05;;;;;;;10.57;4.45;;;21.40;99.90;;;;;;5029671;28;20037;-35
2023/06/20 04:32:31;;;;;;;8.35;3.78;;;21.40;99.90;;;;;;5027432;28;20026;-34
2023/06/20 04:34:56;;;;;;;7.10;4.00;;;21.40;99.90;;;;;;5031654;28;20022;-35
2023/06/20 04:37:22;;;;;;;7.15;3.78;;;21.40;99.90;;;;;;5022239;28;20474;-33
2023/06/20 04:39:48;;;;;;;8.57;3.92;;;21.40;99.90;;;;;;5012994;28;20036;-33
2023/06/20 04:42:13;;;;;;;5.32;3.60;;;21.30;99.90;;;;;;5027188;28;20068;-33
2023/06/20 04:44:39;;;;;;;7.57;4.05;;;21.40;99.90;;;;;;5033202;28;20389;-43
2023/06/20 04:47:08;;;;;;;7.03;4.85;;;21.30;99.90;;;;;;5036802;28;20037;-33
2023/06/20 04:49:33;;;;;;;5.85;3.83;;;21.30;99.90;;;;;;5033530;28;20029;-32
2023/06/20 04:51:59;;;;;;;6.20;4.18;;;21.30;99.90;;;;;;5027035;28;20022;-31
2023/06/20 04:54:25;;;;;;;6.90;4.57;;;21.30;99.90;;;;;;5016700;28;20025;-36
2023/06/20 04:56:51;;;;;;;7.28;4.47;;;21.30;99.90;;;;;;5016885;28;20025;-31
2023/06/20 04:59:16;;;;;;;6.13;4.13;;;21.30;99.90;;;;;;5028173;28;20112;-31
2023/06/20 05:01:42;;;;;;;7.13;4.13;;;21.30;99.90;;;;;;5036532;28;20456;-49
2023/06/20 05:04:08;;;;;;;8.52;5.05;;;21.30;99.90;;;;;;5033134;28;20029;-39
2023/06/20 05:06:33;;;;;;;6.00;3.97;;;21.30;99.90;;;;;;5033461;28;20101;-41
2023/06/20 05:08:59;;;;;;;4.82;3.90;;;21.40;99.90;;;;;;5024473;28;20057;-34
2023/06/20 05:11:26;;;;;;;6.47;4.30;;;21.40;99.90;;;;;;5025680;28;20029;-36
2023/06/20 05:13:52;;;;;;;8.97;4.77;;;21.40;99.90;;;;;;5016525;28;20021;-32
2023/06/20 05:16:17;;;;;;;6.82;4.45;;;21.50;99.90;;;;;;5014995;28;20303;-36
2023/06/20 05:18:44;;;;;;;5.78;4.18;;;21.50;99.90;;;;;;5020662;28;20038;-32
2023/06/20 05:21:10;;;;;;;11.77;4.78;;;21.60;99.90;;;;;;5035531;28;20032;-34
2023/06/20 05:23:35;;;;;;;8.18;5.40;;;21.70;99.90;;;;;;5014279;28;20049;-31
2023/06/20 05:26:01;;;;;;;11.57;4.80;;;21.70;99.90;;;;;;5015244;28;20045;-32
2023/06/20 05:28:27;;;;;;;5.07;4.35;;;21.80;99.90;;;;;;5011022;28;20046;-35
2023/06/20 05:30:53;;;;;;;8.63;4.55;;;21.80;99.90;;;;;;5016033;28;20050;-34
2023/06/20 05:33:18;;;;;;;9.18;5.43;;;21.90;99.90;;;;;;5018690;28;20032;-46
2023/06/20 05:35:46;;;;;;;8.88;4.03;;;21.90;99.90;;;;;;5026305;28;20033;-40
2023/06/20 05:38:13;;;;;;;5.70;4.43;;;21.90;99.90;;;;;;5034096;28;20454;-35
2023/06/20 05:40:38;;;;;;;11.20;4.95;;;22.00;99.90;;;;;;5033590;28;20056;-38
2023/06/20 05:43:04;;;;;;;6.78;4.03;;;22.00;99.90;;;;;;5030576;28;20026;-36
2023/06/20 05:45:30;;;;;;;8.93;4.32;;;22.00;99.90;;;;;;5027148;28;20027;-34
2023/06/20 05:47:55;;;;;;;8.25;4.90;;;22.10;99.90;;;;;;5032622;28;20387;-35
2023/06/20 05:50:21;;;;;;;5.45;3.97;;;22.20;99.90;;;;;;5028207;28;20423;-37
2023/06/20 05:52:46;;;;;;;5.95;4.40;;;22.20;99.90;;;;;;5029283;28;20025;-36
2023/06/20 05:55:12;;;;;;;9.57;4.63;;;22.40;99.90;;;;;;5033391;28;20034;-37
2023/06/20 05:57:38;;;;;;;11.57;4.55;;;22.50;99.90;;;;;;5029656;28;20033;-35
2023/06/20 06:00:12;;;;;;;7.82;5.00;;;22.70;99.90;;;;;;5035431;28;20030;-33
2023/06/20 06:02:40;;;;;;;8.20;5.20;;;22.80;99.90;;;;;;5026381;28;20034;-35
2023/06/20 06:05:06;;;;;;;6.88;4.75;;;22.90;99.90;;;;;;5012986;28;20029;-34
2023/06/20 06:07:32;;;;;;;7.13;4.97;;;23.00;99.90;;;;;;5017103;28;20432;-39
2023/06/20 06:09:58;;;;;;;8.20;4.88;;;23.10;99.90;;;;;;5032763;28;20033;-37
2023/06/20 06:12:24;;;;;;;9.73;5.10;;;23.20;99.90;;;;;;5027820;28;20088;-34
2023/06/20 06:14:51;;;;;;;8.18;4.88;;;23.30;99.90;;;;;;5034286;28;20060;-33
2023/06/20 06:17:17;;;;;;;7.82;4.70;;;23.50;99.90;;;;;;5032060;28;20034;-30
2023/06/20 06:19:43;;;;;;;7.45;5.00;;;23.70;99.90;;;;;;5035083;28;20037;-30
2023/06/20 06:22:08;;;;;;;7.50;5.57;;;23.70;99.90;;;;;;5025273;28;20034;-35
2023/06/20 06:24:34;;;;;;;9.38;5.57;;;24.00;99.90;;;;;;5015017;28;20040;-33
2023/06/20 06:27:00;;;;;;;8.40;5.18;;;24.10;99.90;;;;;;5015213;28;20104;-34
2023/06/20 06:29:27;;;;;;;9.43;5.43;;;24.20;99.90;;;;;;5015148;28;20024;-33
2023/06/20 06:31:54;;;;;;;13.00;5.72;;;24.40;99.90;;;;;;5022690;28;20033;-31
2023/06/20 06:34:19;;;;;;;;;;;24.60;99.90;;;;;;5035092;28;20112;-41
2023/06/20 06:36:48;;;;;;;6.75;5.30;;;24.60;99.90;;;;;;5034566;28;19944;-30
2023/06/20 06:39:15;;;;;;;7.10;5.35;;;24.70;99.90;;;;;;5025904;28;20532;-33
2023/06/20 06:41:44;;;;;;;11.85;7.25;;;24.70;99.90;;;;;;5034656;28;20450;-31
2023/06/20 06:44:10;;;;;;;16.77;7.22;;;24.60;99.90;;;;;;5034549;28;20075;-33
2023/06/20 06:46:36;;;;;;;9.13;5.82;;;24.50;99.90;;;;;;5031588;28;20021;-35
2023/06/20 06:49:02;;;;;;;8.70;6.00;;;24.40;99.90;;;;;;5012426;28;20438;-33
2023/06/20 06:51:29;;;;;;;11.60;6.00;;;24.20;99.90;;;;;;5011163;28;20022;-51
2023/06/20 06:53:55;;;;;;;9.55;5.75;;;24.20;99.90;;;;;;5013626;28;20026;-31
2023/06/20 06:56:20;;;;;;;9.25;5.85;;;24.30;99.90;;;;;;5014540;28;20095;-33
2023/06/20 06:58:46;;;;;;;10.32;6.22;;;24.30;99.90;;;;;;5014390;28;20045;-32
2023/06/20 07:01:12;;;;;;;12.95;6.03;;;24.30;99.90;;;;;;5014453;28;20099;-37
2023/06/20 07:03:37;;;;;;;9.00;6.68;;;24.40;99.90;;;;;;5015646;28;20034;-34
2023/06/20 07:06:03;;;;;;;10.77;6.82;;;24.60;99.90;;;;;;5023615;28;20386;-33
2023/06/20 07:08:29;;;;;;;10.15;6.47;;;24.70;99.90;;;;;;5029911;28;20017;-31
2023/06/20 07:10:55;;;;;;;8.75;6.57;;;24.90;99.90;;;;;;5033882;28;20045;-31
2023/06/20 07:13:23;;;;;;;11.00;6.68;;;25.10;99.90;;;;;;5030507;28;20471;-38
2023/06/20 07:15:49;;;;;;;9.35;6.97;;;25.30;99.90;;;;;;5017582;28;20033;-31
2023/06/20 07:18:15;;;;;;;15.55;7.22;;;25.40;99.90;;;;;;5033944;28;20030;-33
2023/06/20 07:20:40;;;;;;;10.75;6.75;;;25.60;99.90;;;;;;5033928;28;20033;-33
2023/06/20 07:23:06;;;;;;;8.02;6.38;;;25.50;99.90;;;;;;5016039;28;20121;-32
2023/06/20 07:25:32;;;;;;;9.20;5.80;;;25.40;99.90;;;;;;5016084;28;20276;-31
2023/06/20 07:27:57;;;;;;;10.25;6.97;;;25.30;99.90;;;;;;5029739;28;20025;-36
2023/06/20 07:30:23;;;;;;;9.18;5.93;;;25.40;99.90;;;;;;5031547;28;20026;-34
2023/06/20 07:32:49;;;;;;;10.63;7.15;;;26.10;99.90;;;;;;5032738;28;20029;-31
2023/06/20 07:35:15;;;;;;;12.90;6.75;;;26.90;99.90;;;;;;5033916;28;20029;-30
2023/06/20 07:37:40;;;;;;;12.57;7.20;;;27.30;99.90;;;;;;5022393;28;20104;-34
2023/06/20 07:40:07;;;;;;;10.52;6.60;;;27.60;99.60;;;;;;5033621;28;20100;-33
2023/06/20 07:42:33;;;;;;;9.60;6.80;;;28.00;99.20;;;;;;5033461;28;20112;-33
2023/06/20 07:44:59;;;;;;;9.75;6.43;;;28.30;98.70;;;;;;5033411;28;20034;-38
2023/06/20 07:47:25;;;;;;;10.50;7.88;;;28.40;98.60;;;;;;5029914;28;20052;-32
2023/06/20 07:49:50;;;;;;;9.80;7.13;;;28.40;98.30;;;;;;5033252;28;20061;-40
2023/06/20 07:52:16;;;;;;;10.73;7.07;;;28.30;98.50;;;;;;5033336;28;20036;-41
2023/06/20 07:54:42;;;;;;;14.25;6.82;;;28.00;98.20;;;;;;5033368;28;20029;-40
2023/06/20 07:57:07;;;;;;;12.88;7.90;;;27.90;98.60;;;;;;5029284;28;20034;-39
2023/06/20 07:59:33;;;;;;;9.75;7.00;;;27.80;98.40;;;;;;5011380;28;20478;-40
2023/06/20 08:01:58;;;;;;;7.20;4.97;;;27.60;98.70;;;;;;5011317;28;20029;-38
2023/06/20 08:04:24;;;;;;;10.45;6.85;;;27.50;99.00;;;;;;5010652;28;20041;-40
2023/06/20 08:06:50;;;;;;;9.30;5.80;;;27.50;99.10;;;;;;5008496;28;20029;-39
2023/06/20 08:09:16;;;;;;;9.57;6.22;;;27.60;99.50;;;;;;5020990;28;20091;-40
2023/06/20 08:11:42;;;;;;;8.98;6.10;;;27.90;99.20;;;;;;5012154;28;20026;-55
2023/06/20 08:14:08;;;;;;;9.82;6.63;;;28.20;98.90;;;;;;5013215;28;20068;-40
2023/06/20 08:16:33;;;;;;;10.55;6.25;;;28.50;98.30;;;;;;5022169;28;20073;-39
2023/06/20 08:18:59;;;;;;;9.43;6.55;;;28.30;98.80;;;;;;5013119;28;20075;-40
2023/06/20 08:21:25;;;;;;;7.47;5.82;;;28.60;98.50;;;;;;5011518;28;20390;-39
2023/06/20 08:23:51;;;;;;;9.90;6.65;;;28.60;98.60;;;;;;5013148;28;20038;-48
2023/06/20 08:26:16;;;;;;;7.20;5.72;;;28.90;98.00;;;;;;5013549;28;20423;-41
2023/06/20 08:28:42;;;;;;;10.10;5.22;;;29.30;98.20;;;;;;5016841;28;20125;-41
2023/06/20 08:31:08;;;;;;;9.47;6.80;;;29.50;97.80;;;;;;5016653;28;20047;-41
2023/06/20 08:33:33;;;;;;;6.07;4.80;;;29.90;97.10;;;;;;5030358;28;20033;-41
2023/06/20 08:35:59;;;;;;;10.13;5.70;;;30.10;97.10;;;;;;5017193;28;20104;-41
2023/06/20 08:38:25;;;;;;;6.27;5.13;;;30.50;96.70;;;;;;5013046;28;20395;-42
2023/06/20 08:40:51;;;;;;;7.93;4.47;;;30.50;96.80;;;;;;5013545;28;20032;-41
2023/06/20 08:43:17;;;;;;;6.60;6.00;;;30.50;96.50;;;;;;5023650;28;20370;-40
2023/06/20 08:45:44;;;;;;;6.70;4.05;;;30.70;96.20;;;;;;5012865;28;20490;-44
2023/06/20 08:48:10;;;;;;;;;;;31.10;96.20;;;;;;5013323;28;20026;-45
2023/06/20 08:50:37;;;;;;;7.13;4.37;;;31.30;95.70;;;;;;5012505;28;19925;-40
2023/06/20 08:53:05;;;;;;;10.15;5.97;;;31.50;95.80;;;;;;5026446;28;20060;-60
2023/06/20 08:55:32;;;;;;;10.20;6.47;;;31.60;95.40;;;;;;5011708;28;20038;-37
2023/06/20 08:57:58;;;;;;;8.35;6.25;;;31.70;95.40;;;;;;5013168;28;20022;-41
2023/06/20 09:00:24;;;;;;;8.27;6.33;;;31.60;95.60;;;;;;5015104;28;20018;-44
2023/06/20 09:02:50;;;;;;;5.55;4.93;;;31.40;95.50;;;;;;5012374;28;20487;-41
2023/06/20 09:05:16;;;;;;;11.40;4.18;;;31.30;95.90;;;;;;5003657;28;20052;-46
2023/06/20 09:07:42;;;;;;;;;;;31.40;96.20;;;;;;5010876;28;20483;-53
2023/06/20 09:10:10;;;;;;;5.68;4.45;;;31.50;95.40;;;;;;5011616;28;19913;-40
2023/06/20 09:13:03;;;;;;;7.47;4.72;;;31.30;95.90;;;;;;5011882;28;20125;-41
2023/06/20 09:15:29;;;;;;;4.65;3.88;;;31.20;95.60;;;;;;5014535;28;20529;-41
2023/06/20 09:18:00;;;;;;;6.88;4.53;;;31.10;95.70;;;;;;5011083;28;20022;-46
2023/06/20 09:20:27;;;;;;;4.53;3.58;;;31.00;95.90;;;;;;5011197;28;20026;-37
2023/06/20 09:22:53;;;;;;;5.07;3.28;;;31.10;95.60;;;;;;5007589;28;20498;-53
2023/06/20 09:25:27;;;;;;;5.17;4.17;;;31.30;95.00;;;;;;5007123;28;20041;-42
2023/06/20 09:27:55;;;;;;;6.28;4.90;;;31.20;95.90;;;;;;5021546;28;20022;-45
2023/06/20 09:30:20;;;;;;;6.07;5.47;;;31.20;95.40;;;;;;5028636;28;20032;-41
2023/06/20 09:32:46;;;;;;;4.17;3.77;;;31.00;95.50;;;;;;5014588;28;20390;-42
2023/06/20 09:35:14;;;;;;;6.77;5.90;;;30.70;95.60;;;;;;5019744;28;20049;-39
2023/06/20 09:37:41;;;;;;;7.25;4.68;;;30.50;95.70;;;;;;5033184;28;20426;-40
2023/06/20 09:40:12;;;;;;;4.25;3.85;;;30.20;96.20;;;;;;5027866;28;20045;-41
2023/06/20 09:42:40;;;;;;;4.63;2.60;;;30.20;96.10;;;;;;5019336;28;20534;-41
2023/06/20 09:45:07;;;;;;;2.20;2.00;;;30.20;96.20;;;;;;5000851;28;20025;-42
2023/06/20 09:47:35;;;;;;;3.67;2.60;;;30.10;96.20;;;;;;5028756;28;20447;-40
2023/06/20 09:50:06;;;;;;;3.03;2.60;;;30.20;96.00;;;;;;5035959;28;20075;-52
2023/06/20 09:52:42;;;;;;;5.22;3.75;;;30.20;96.30;;;;;;5013957;28;20029;-41
2023/06/20 09:55:12;;;;;;;3.85;2.65;;;30.10;96.40;;;;;;5015962;28;20419;-57
2023/06/20 09:57:43;;;;;;;4.07;3.70;;;30.10;96.80;;;;;;5032150;28;20034;-41
2023/06/20 10:00:16;;;;;;;3.92;3.53;;;30.10;96.50;;;;;;5027635;28;20486;-40
2023/06/20 10:02:47;;;;;;;5.32;3.55;;;30.10;96.50;;;;;;5015497;28;20061;-41
2023/06/20 10:05:17;;;;;;;3.70;3.40;;;30.00;96.60;;;;;;5030829;28;20038;-42
2023/06/20 10:07:44;;;;;;;8.10;4.00;;;30.10;96.70;;;;;;5015572;28;20054;-41
2023/06/20 10:10:11;;;;;;;7.93;4.85;;;30.50;96.50;;;;;;5013059;28;20092;-43
2023/06/20 10:12:41;;;;;;;7.85;5.38;;;30.90;96.10;;;;;;5013719;28;20091;-41
2023/06/20 10:15:08;;;;;;;4.80;4.30;;;31.20;96.00;;;;;;5015789;28;20029;-34
2023/06/20 10:17:48;;;;;;;7.65;5.13;;;31.70;95.60;;;;;;5011738;28;20494;-38
2023/06/20 10:20:34;;;;;;;8.65;5.30;;;31.70;95.40;;;;;;4999251;28;20093;-32
2023/06/20 10:23:05;;;;;;;6.70;4.97;;;31.50;95.50;;;;;;4995464;28;20034;-37
2023/06/20 10:25:32;;;;;;;6.13;4.53;;;31.30;95.90;;;;;;4995497;28;20076;-34
2023/06/20 10:28:02;;;;;;;6.25;4.30;;;31.30;95.70;;;;;;5010608;28;20459;-32
2023/06/20 10:30:57;;;;;;;9.05;5.70;;;31.30;96.20;;;;;;4995469;28;20101;-34
2023/06/20 10:33:28;;;;;;;6.15;4.30;;;31.60;96.00;;;;;;5010942;28;20042;-40
2023/06/20 10:35:56;;;;;;;6.20;4.88;;;31.70;95.40;;;;;;5030129;28;20124;-32
2023/06/20 10:38:21;;;;;;;7.40;5.10;;;32.00;95.50;;;;;;5010349;28;20026;-35
2023/06/20 10:40:47;;;;;;;7.10;5.43;;;31.90;95.30;;;;;;4995296;28;20399;-32
2023/06/20 10:43:17;;;;;;;8.23;5.27;;;31.90;95.70;;;;;;5011801;28;20500;-34
2023/06/20 10:45:57;;;;;;;9.60;7.10;;;31.80;95.70;;;;;;5011552;28;20036;-40
2023/06/20 10:48:29;;;;;;;7.72;6.22;;;31.70;95.70;;;;;;5010727;28;20030;-32
2023/06/20 10:51:00;;;;;;;7.80;5.22;;;31.30;95.90;;;;;;5013818;28;20061;-35
2023/06/20 10:53:28;;;;;;;9.75;5.38;;;30.90;96.40;;;;;;5029596;28;20537;-38
2023/06/20 10:55:53;;;;;;;7.47;5.85;;;30.80;96.80;;;;;;5014576;28;20112;-33
2023/06/20 10:58:19;;;;;;;8.05;4.82;;;30.70;97.00;;;;;;5013079;28;20053;-41
2023/06/20 11:00:44;;;;;;;9.85;6.50;;;30.40;97.10;;;;;;5013741;28;20065;-34
2023/06/20 11:03:10;;;;;;;18.00;6.03;;;30.20;97.30;;;;;;5031542;28;20075;-33
2023/06/20 11:05:36;;;;;;;9.68;5.80;;;30.00;97.60;;;;;;5027013;28;20029;-35
2023/06/20 11:08:05;;;;;;;8.27;5.32;;;29.80;97.90;;;;;;5034452;28;20490;-33
2023/06/20 11:10:36;;;;;;;4.30;3.90;;;29.80;97.90;;;;;;5024039;28;20168;-41
2023/06/20 11:13:06;;;;;;;4.72;4.07;;;29.70;97.60;;;;;;5020508;28;20053;-34
2023/06/20 11:15:34;;;;;;;4.70;4.13;;;29.60;97.80;;;;;;5034139;28;20025;-34
2023/06/20 11:18:05;;;;;;;9.40;4.10;;;29.60;97.80;;;;;;5030953;28;20025;-45
2023/06/20 11:20:37;;;;;;;7.78;4.60;;;29.80;98.20;;;;;;5034045;28;20061;-40
2023/06/20 11:23:04;;;;;;;4.90;4.07;;;29.90;98.00;;;;;;5031936;28;20508;-35
2023/06/20 11:25:32;;;;;;;3.65;3.30;;;30.00;97.70;;;;;;5033790;28;20395;-33
2023/06/20 11:28:10;;;;;;;5.13;3.53;;;30.00;97.80;;;;;;5029382;28;20029;-35
2023/06/20 11:30:41;;;;;;;4.10;3.20;;;30.00;97.80;;;;;;5033975;28;20018;-42
2023/06/20 11:33:11;;;;;;;3.22;2.75;;;29.90;97.90;;;;;;5023597;28;20034;-37
2023/06/20 11:35:49;;;;;;;2.80;2.60;;;29.80;97.60;;;;;;5022740;28;20030;-36
2023/06/20 11:38:20;;;;;;;3.22;2.92;;;29.60;97.70;;;;;;5033622;28;20104;-48
2023/06/20 11:40:51;;;;;;;2.72;2.50;;;29.40;97.60;;;;;;5033615;28;20037;-34
2023/06/20 11:43:27;;;;;;;2.15;2.05;;;29.30;97.60;;;;;;5019501;28;20437;-35
2023/06/20 11:46:00;;;;;;;2.67;2.47;;;29.40;98.00;;;;;;5009286;28;20034;-40
2023/06/20 11:48:26;;;;;;;2.35;2.15;;;29.70;97.90;;;;;;5011277;28;20026;-47
2023/06/20 11:51:00;;;;;;;3.28;2.75;;;30.00;97.60;;;;;;5018082;28;20536;-40
2023/06/20 11:53:37;;;;;;;3.10;2.47;;;30.20;97.40;;;;;;4996591;28;20032;-32
2023/06/20 11:56:08;;;;;;;2.38;2.17;;;30.40;97.30;;;;;;5015987;28;20033;-38
2023/06/20 11:58:39;;;;;;;3.63;2.17;;;30.30;97.60;;;;;;5029408;28;20499;-34
2023/06/20 12:01:18;;;;;;;2.65;2.45;;;30.20;97.70;;;;;;5011248;28;20479;-31
2023/06/20 12:03:45;;;;;;;2.03;1.92;;;30.20;97.80;;;;;;5013288;28;20594;-34
2023/06/20 12:06:28;;;;;;;2.38;2.03;;;30.40;97.40;;;;;;5013620;28;20526;-36
2023/06/20 12:09:12;;;;;;;2.60;2.40;;;30.80;97.30;;;;;;5013584;28;20502;-40
2023/06/20 12:11:53;;;;;;;3.33;2.67;;;31.00;97.40;;;;;;5013411;28;20080;-43
2023/06/20 12:14:22;;;;;;;4.38;2.00;;;31.30;96.50;;;;;;5013570;28;20038;-40
2023/06/20 12:16:49;;;;;;;2.97;2.72;;;31.40;96.40;;;;;;5012643;28;20034;-34
2023/06/20 12:19:14;;;;;;;;;;;31.50;96.40;;;;;;5013881;28;20505;-32
2023/06/20 12:21:42;;;;;;;2.63;2.15;;;31.50;96.30;;;;;;5013335;28;19909;-35
2023/06/20 12:24:08;;;;;;;12.05;2.40;;;31.30;96.20;;;;;;5013162;28;20036;-35
2023/06/20 12:26:34;;;;;;;2.47;2.28;;;31.20;96.60;;;;;;5012928;28;20044;-36
2023/06/20 12:29:00;;;;;;;3.05;1.58;;;31.10;96.90;;;;;;5013076;28;20022;-32
2023/06/20 12:31:26;;;;;;;2.30;2.10;;;31.10;96.20;;;;;;5013326;28;20022;-41
2023/06/20 12:33:51;;;;;;;2.55;2.13;;;31.10;96.40;;;;;;5007963;28;20073;-37
2023/06/20 12:36:17;;;;;;;2.17;2.00;;;31.20;96.20;;;;;;5012967;28;20037;-34
2023/06/20 12:38:44;;;;;;;2.63;1.87;;;31.30;95.80;;;;;;5013220;28;20037;-32
2023/06/20 12:41:13;;;;;;;4.53;2.22;;;31.50;95.90;;;;;;5012941;28;20040;-38
2023/06/20 12:43:39;;;;;;;2.30;2.10;;;31.80;95.30;;;;;;5013111;28;20430;-36
2023/06/20 12:46:05;;;;;;;2.83;2.08;;;31.90;95.70;;;;;;5013221;28;20026;-37
2023/06/20 12:48:31;;;;;;;2.20;2.00;;;32.00;95.90;;;;;;5012701;28;20022;-38
2023/06/20 12:50:57;;;;;;;2.23;2.07;;;32.20;95.80;;;;;;5011169;28;20034;-38
2023/06/20 12:53:23;;;;;;;2.13;1.93;;;32.10;95.60;;;;;;5011394;28;20277;-32